sensor_id;sensor_type;location;lat;lon;timestamp;pressure;altitude;pressure_sealevel;temperature;humidity
47592;BME280;33317;33.356;-117.184;2024-02-23T00:02:07;99633.12;;;30.18;26.19
47592;BME280;33317;33.356;-117.184;2024-02-23T00:04:37;99627.13;;;30.17;26.28
47592;BME280;33317;33.356;-117.184;2024-02-23T00:07:06;99621.62;;;30.45;26.23
47592;BME280;33317;33.356;-117.184;2024-02-23T00:09:35;99621.68;;;30.26;26.26
47592;BME280;33317;33.356;-117.184;2024-02-23T00:12:05;99623.81;;;30.70;26.32
47592;BME280;33317;33.356;-117.184;2024-02-23T00:14:33;99624.01;;;30.16;26.47
47592;BME280;33317;33.356;-117.184;2024-02-23T00:17:02;99630.95;;;23.70;32.13
47592;BME280;33317;33.356;-117.184;2024-02-23T00:19:31;99629.67;;;21.07;37.19
47592;BME280;33317;33.356;-117.184;2024-02-23T00:21:59;99629.89;;;22.08;36.96
47592;BME280;33317;33.356;-117.184;2024-02-23T00:24:29;99628.92;;;21.82;38.93
47592;BME280;33317;33.356;-117.184;2024-02-23T00:26:57;99627.69;;;22.94;34.36
47592;BME280;33317;33.356;-117.184;2024-02-23T00:29:25;99627.64;;;22.69;35.82
47592;BME280;33317;33.356;-117.184;2024-02-23T00:31:55;99629.58;;;20.76;37.28
47592;BME280;33317;33.356;-117.184;2024-02-23T00:34:23;99634.35;;;22.24;36.61
47592;BME280;33317;33.356;-117.184;2024-02-23T00:36:53;99635.49;;;21.28;36.31
47592;BME280;33317;33.356;-117.184;2024-02-23T00:39:21;99644.45;;;20.78;37.33
47592;BME280;33317;33.356;-117.184;2024-02-23T00:41:50;99644.61;;;22.09;36.94
47592;BME280;33317;33.356;-117.184;2024-02-23T00:44:18;99647.32;;;21.89;35.64
47592;BME280;33317;33.356;-117.184;2024-02-23T00:46:47;99651.35;;;21.80;35.93
47592;BME280;33317;33.356;-117.184;2024-02-23T00:49:16;99654.73;;;19.46;38.15
47592;BME280;33317;33.356;-117.184;2024-02-23T00:51:44;99656.48;;;20.09;37.54
47592;BME280;33317;33.356;-117.184;2024-02-23T00:54:12;99649.07;;;21.33;35.95
47592;BME280;33317;33.356;-117.184;2024-02-23T00:56:41;99647.89;;;21.40;35.37
47592;BME280;33317;33.356;-117.184;2024-02-23T00:59:10;99651.55;;;20.75;35.97
47592;BME280;33317;33.356;-117.184;2024-02-23T01:01:38;99653.81;;;18.74;38.85
47592;BME280;33317;33.356;-117.184;2024-02-23T01:04:06;99658.03;;;20.48;36.96
47592;BME280;33317;33.356;-117.184;2024-02-23T01:06:35;99666.21;;;17.87;39.86
47592;BME280;33317;33.356;-117.184;2024-02-23T01:09:03;99674.77;;;17.75;41.42
47592;BME280;33317;33.356;-117.184;2024-02-23T01:11:31;99673.35;;;19.20;39.09
47592;BME280;33317;33.356;-117.184;2024-02-23T01:14:00;99681.06;;;18.61;39.41
47592;BME280;33317;33.356;-117.184;2024-02-23T01:16:28;99681.38;;;19.18;38.23
47592;BME280;33317;33.356;-117.184;2024-02-23T01:18:57;99682.33;;;20.46;36.56
47592;BME280;33317;33.356;-117.184;2024-02-23T01:21:26;99684.10;;;18.63;38.15
47592;BME280;33317;33.356;-117.184;2024-02-23T01:23:55;99682.78;;;19.20;38.51
47592;BME280;33317;33.356;-117.184;2024-02-23T01:26:23;99687.01;;;22.40;37.70
47592;BME280;33317;33.356;-117.184;2024-02-23T01:28:51;99684.98;;;23.76;35.14
47592;BME280;33317;33.356;-117.184;2024-02-23T01:31:19;99687.00;;;25.02;33.16
47592;BME280;33317;33.356;-117.184;2024-02-23T01:33:48;99692.79;;;25.87;31.81
47592;BME280;33317;33.356;-117.184;2024-02-23T01:36:16;99694.65;;;26.43;30.75
47592;BME280;33317;33.356;-117.184;2024-02-23T01:38:45;99696.36;;;26.85;29.99
47592;BME280;33317;33.356;-117.184;2024-02-23T01:41:13;99697.63;;;27.55;29.42
47592;BME280;33317;33.356;-117.184;2024-02-23T01:43:42;99691.60;;;27.44;29.07
47592;BME280;33317;33.356;-117.184;2024-02-23T01:46:11;99686.21;;;27.70;28.77
47592;BME280;33317;33.356;-117.184;2024-02-23T01:48:39;99686.15;;;27.84;28.52
47592;BME280;33317;33.356;-117.184;2024-02-23T01:51:07;99688.93;;;27.92;28.44
47592;BME280;33317;33.356;-117.184;2024-02-23T01:53:36;99688.78;;;27.98;28.41
47592;BME280;33317;33.356;-117.184;2024-02-23T01:56:05;99692.43;;;27.99;28.40
47592;BME280;33317;33.356;-117.184;2024-02-23T01:58:36;99692.40;;;28.07;28.23
47592;BME280;33317;33.356;-117.184;2024-02-23T02:01:05;99694.80;;;28.07;28.30
47592;BME280;33317;33.356;-117.184;2024-02-23T02:03:34;99696.74;;;27.77;28.28
47592;BME280;33317;33.356;-117.184;2024-02-23T02:06:03;99700.03;;;27.88;28.08
47592;BME280;33317;33.356;-117.184;2024-02-23T02:08:33;99702.39;;;28.02;28.25
47592;BME280;33317;33.356;-117.184;2024-02-23T02:11:02;99706.52;;;27.88;28.41
47592;BME280;33317;33.356;-117.184;2024-02-23T02:13:30;99705.06;;;27.80;28.32
47592;BME280;33317;33.356;-117.184;2024-02-23T02:16:00;99705.53;;;27.48;28.41
47592;BME280;33317;33.356;-117.184;2024-02-23T02:18:30;99708.44;;;27.64;28.55
47592;BME280;33317;33.356;-117.184;2024-02-23T02:20:58;99706.31;;;27.61;28.37
47592;BME280;33317;33.356;-117.184;2024-02-23T02:23:27;99710.94;;;27.69;28.69
47592;BME280;33317;33.356;-117.184;2024-02-23T02:25:56;99708.28;;;27.39;28.65
47592;BME280;33317;33.356;-117.184;2024-02-23T02:28:26;99710.74;;;27.29;28.76
47592;BME280;33317;33.356;-117.184;2024-02-23T02:30:56;99710.35;;;27.16;29.00
47592;BME280;33317;33.356;-117.184;2024-02-23T02:33:25;99709.87;;;27.33;29.04
47592;BME280;33317;33.356;-117.184;2024-02-23T02:35:55;99717.04;;;27.44;29.09
47592;BME280;33317;33.356;-117.184;2024-02-23T02:38:23;99721.41;;;27.01;29.53
47592;BME280;33317;33.356;-117.184;2024-02-23T02:40:52;99729.76;;;26.94;29.47
47592;BME280;33317;33.356;-117.184;2024-02-23T02:43:21;99733.89;;;27.16;29.43
47592;BME280;33317;33.356;-117.184;2024-02-23T02:45:49;99737.26;;;26.79;30.01
47592;BME280;33317;33.356;-117.184;2024-02-23T02:48:20;99739.91;;;26.78;29.53
47592;BME280;33317;33.356;-117.184;2024-02-23T02:50:48;99744.34;;;26.92;29.68
47592;BME280;33317;33.356;-117.184;2024-02-23T02:53:16;99745.94;;;26.85;29.77
47592;BME280;33317;33.356;-117.184;2024-02-23T02:55:45;99742.21;;;26.59;30.19
47592;BME280;33317;33.356;-117.184;2024-02-23T02:58:14;99745.10;;;26.53;30.13
47592;BME280;33317;33.356;-117.184;2024-02-23T03:00:44;99751.13;;;26.50;30.15
47592;BME280;33317;33.356;-117.184;2024-02-23T03:03:13;99752.46;;;26.44;30.09
47592;BME280;33317;33.356;-117.184;2024-02-23T03:05:41;99758.16;;;26.33;30.38
47592;BME280;33317;33.356;-117.184;2024-02-23T03:08:10;99761.41;;;26.53;30.35
47592;BME280;33317;33.356;-117.184;2024-02-23T03:10:38;99764.29;;;26.41;30.55
47592;BME280;33317;33.356;-117.184;2024-02-23T03:13:06;99767.61;;;26.18;30.43
47592;BME280;33317;33.356;-117.184;2024-02-23T03:15:35;99765.91;;;25.99;30.71
47592;BME280;33317;33.356;-117.184;2024-02-23T03:18:04;99764.02;;;26.09;30.52
47592;BME280;33317;33.356;-117.184;2024-02-23T03:20:32;99768.89;;;26.13;30.93
47592;BME280;33317;33.356;-117.184;2024-02-23T03:23:02;99770.01;;;26.16;30.83
47592;BME280;33317;33.356;-117.184;2024-02-23T03:25:30;99774.99;;;25.93;30.92
47592;BME280;33317;33.356;-117.184;2024-02-23T03:27:58;99778.61;;;25.93;30.82
47592;BME280;33317;33.356;-117.184;2024-02-23T03:30:27;99775.11;;;26.00;30.70
47592;BME280;33317;33.356;-117.184;2024-02-23T03:32:55;99777.01;;;26.32;30.59
47592;BME280;33317;33.356;-117.184;2024-02-23T03:35:24;99779.56;;;26.26;30.81
47592;BME280;33317;33.356;-117.184;2024-02-23T03:37:53;99778.13;;;26.30;31.09
47592;BME280;33317;33.356;-117.184;2024-02-23T03:40:22;99781.58;;;25.55;31.47
47592;BME280;33317;33.356;-117.184;2024-02-23T03:42:50;99783.17;;;25.86;31.14
47592;BME280;33317;33.356;-117.184;2024-02-23T03:45:19;99782.71;;;25.94;31.20
47592;BME280;33317;33.356;-117.184;2024-02-23T03:47:47;99776.18;;;25.73;31.67
47592;BME280;33317;33.356;-117.184;2024-02-23T03:50:16;99775.91;;;25.43;31.96
47592;BME280;33317;33.356;-117.184;2024-02-23T03:52:45;99778.45;;;25.47;32.18
47592;BME280;33317;33.356;-117.184;2024-02-23T03:55:13;99777.49;;;24.87;32.90
47592;BME280;33317;33.356;-117.184;2024-02-23T03:57:43;99779.89;;;25.32;31.99
47592;BME280;33317;33.356;-117.184;2024-02-23T04:00:13;99782.81;;;25.70;31.93
47592;BME280;33317;33.356;-117.184;2024-02-23T04:02:42;99784.37;;;25.52;31.78
47592;BME280;33317;33.356;-117.184;2024-02-23T04:05:10;99784.41;;;25.55;32.05
47592;BME280;33317;33.356;-117.184;2024-02-23T04:07:38;99788.38;;;25.42;32.30
47592;BME280;33317;33.356;-117.184;2024-02-23T04:10:08;99789.83;;;25.13;32.29
47592;BME280;33317;33.356;-117.184;2024-02-23T04:12:36;99797.11;;;25.13;32.33
47592;BME280;33317;33.356;-117.184;2024-02-23T04:15:06;99799.71;;;25.49;32.07
47592;BME280;33317;33.356;-117.184;2024-02-23T04:17:34;99789.88;;;25.26;32.47
47592;BME280;33317;33.356;-117.184;2024-02-23T04:20:07;99790.56;;;24.95;32.97
47592;BME280;33317;33.356;-117.184;2024-02-23T04:22:37;99795.32;;;25.25;32.55
47592;BME280;33317;33.356;-117.184;2024-02-23T04:25:05;99804.08;;;25.41;32.14
47592;BME280;33317;33.356;-117.184;2024-02-23T04:27:33;99806.27;;;24.95;32.92
47592;BME280;33317;33.356;-117.184;2024-02-23T04:30:05;99802.59;;;24.49;33.47
47592;BME280;33317;33.356;-117.184;2024-02-23T04:32:33;99798.75;;;24.50;33.48
47592;BME280;33317;33.356;-117.184;2024-02-23T04:35:04;99794.78;;;24.64;33.37
47592;BME280;33317;33.356;-117.184;2024-02-23T04:37:32;99797.71;;;24.76;32.91
47592;BME280;33317;33.356;-117.184;2024-02-23T04:40:03;99803.12;;;25.17;32.56
47592;BME280;33317;33.356;-117.184;2024-02-23T04:42:32;99808.55;;;24.59;33.27
47592;BME280;33317;33.356;-117.184;2024-02-23T04:45:01;99815.74;;;24.62;33.33
47592;BME280;33317;33.356;-117.184;2024-02-23T04:47:31;99818.11;;;24.85;32.95
47592;BME280;33317;33.356;-117.184;2024-02-23T04:49:59;99817.33;;;24.73;33.20
47592;BME280;33317;33.356;-117.184;2024-02-23T04:52:29;99816.79;;;24.59;33.32
47592;BME280;33317;33.356;-117.184;2024-02-23T04:54:57;99824.32;;;24.91;32.60
47592;BME280;33317;33.356;-117.184;2024-02-23T04:57:26;99824.74;;;24.73;33.16
47592;BME280;33317;33.356;-117.184;2024-02-23T04:59:56;99829.71;;;25.06;32.57
47592;BME280;33317;33.356;-117.184;2024-02-23T05:02:24;99830.88;;;24.86;32.68
47592;BME280;33317;33.356;-117.184;2024-02-23T05:04:52;99832.36;;;24.48;33.48
47592;BME280;33317;33.356;-117.184;2024-02-23T05:07:20;99842.05;;;24.45;33.32
47592;BME280;33317;33.356;-117.184;2024-02-23T05:09:49;99838.08;;;24.68;33.76
47592;BME280;33317;33.356;-117.184;2024-02-23T05:12:17;99836.26;;;24.23;34.15
47592;BME280;33317;33.356;-117.184;2024-02-23T05:14:45;99838.60;;;23.85;34.23
47592;BME280;33317;33.356;-117.184;2024-02-23T05:17:14;99843.91;;;23.68;34.42
47592;BME280;33317;33.356;-117.184;2024-02-23T05:19:43;99848.42;;;24.13;34.50
47592;BME280;33317;33.356;-117.184;2024-02-23T05:22:11;99852.61;;;23.80;34.95
47592;BME280;33317;33.356;-117.184;2024-02-23T05:24:40;99855.25;;;23.91;34.78
47592;BME280;33317;33.356;-117.184;2024-02-23T05:27:08;99856.34;;;23.75;34.93
47592;BME280;33317;33.356;-117.184;2024-02-23T05:29:36;99856.28;;;23.69;34.88
47592;BME280;33317;33.356;-117.184;2024-02-23T05:32:06;99856.90;;;24.37;33.64
47592;BME280;33317;33.356;-117.184;2024-02-23T05:34:34;99852.63;;;23.99;34.54
47592;BME280;33317;33.356;-117.184;2024-02-23T05:37:02;99852.20;;;23.60;34.75
47592;BME280;33317;33.356;-117.184;2024-02-23T05:39:31;99858.29;;;23.29;34.89
47592;BME280;33317;33.356;-117.184;2024-02-23T05:41:59;99858.79;;;24.02;34.49
47592;BME280;33317;33.356;-117.184;2024-02-23T05:44:27;99859.23;;;23.80;34.76
47592;BME280;33317;33.356;-117.184;2024-02-23T05:46:56;99854.91;;;23.45;34.94
47592;BME280;33317;33.356;-117.184;2024-02-23T05:49:24;99851.55;;;23.89;34.57
47592;BME280;33317;33.356;-117.184;2024-02-23T05:51:54;99847.55;;;23.73;34.59
47592;BME280;33317;33.356;-117.184;2024-02-23T05:54:22;99845.68;;;23.81;34.44
47592;BME280;33317;33.356;-117.184;2024-02-23T05:56:50;99846.71;;;23.97;34.44
47592;BME280;33317;33.356;-117.184;2024-02-23T05:59:18;99844.51;;;23.35;34.91
47592;BME280;33317;33.356;-117.184;2024-02-23T06:01:47;99848.91;;;23.62;34.83
47592;BME280;33317;33.356;-117.184;2024-02-23T06:04:16;99847.92;;;23.17;35.51
47592;BME280;33317;33.356;-117.184;2024-02-23T06:06:47;99849.91;;;23.20;35.48
47592;BME280;33317;33.356;-117.184;2024-02-23T06:09:17;99846.51;;;22.91;35.56
47592;BME280;33317;33.356;-117.184;2024-02-23T06:11:46;99838.74;;;23.16;35.52
47592;BME280;33317;33.356;-117.184;2024-02-23T06:14:14;99834.15;;;23.32;35.21
47592;BME280;33317;33.356;-117.184;2024-02-23T06:16:43;99830.03;;;23.69;34.66
47592;BME280;33317;33.356;-117.184;2024-02-23T06:19:12;99824.75;;;23.66;34.72
47592;BME280;33317;33.356;-117.184;2024-02-23T06:21:40;99821.99;;;23.14;34.81
47592;BME280;33317;33.356;-117.184;2024-02-23T06:24:09;99820.84;;;23.53;34.89
47592;BME280;33317;33.356;-117.184;2024-02-23T06:26:37;99820.50;;;23.53;34.73
47592;BME280;33317;33.356;-117.184;2024-02-23T06:29:06;99818.65;;;23.57;34.65
47592;BME280;33317;33.356;-117.184;2024-02-23T06:31:34;99815.30;;;23.49;34.75
47592;BME280;33317;33.356;-117.184;2024-02-23T06:34:02;99813.78;;;23.41;35.04
47592;BME280;33317;33.356;-117.184;2024-02-23T06:36:31;99811.42;;;23.33;35.14
47592;BME280;33317;33.356;-117.184;2024-02-23T06:38:59;99809.15;;;23.63;34.63
47592;BME280;33317;33.356;-117.184;2024-02-23T06:41:27;99806.15;;;23.54;34.78
47592;BME280;33317;33.356;-117.184;2024-02-23T06:43:56;99802.04;;;23.78;34.36
47592;BME280;33317;33.356;-117.184;2024-02-23T06:46:25;99797.13;;;23.40;34.52
47592;BME280;33317;33.356;-117.184;2024-02-23T06:48:54;99794.37;;;23.33;34.92
47592;BME280;33317;33.356;-117.184;2024-02-23T06:51:22;99793.11;;;23.23;35.11
47592;BME280;33317;33.356;-117.184;2024-02-23T06:53:50;99787.64;;;23.23;34.97
47592;BME280;33317;33.356;-117.184;2024-02-23T06:56:18;99787.04;;;23.32;35.00
47592;BME280;33317;33.356;-117.184;2024-02-23T06:58:46;99789.05;;;22.90;35.44
47592;BME280;33317;33.356;-117.184;2024-02-23T07:01:15;99790.46;;;22.94;35.48
47592;BME280;33317;33.356;-117.184;2024-02-23T07:03:43;99791.89;;;23.14;35.11
47592;BME280;33317;33.356;-117.184;2024-02-23T07:06:12;99786.26;;;23.04;35.22
47592;BME280;33317;33.356;-117.184;2024-02-23T07:08:40;99787.07;;;23.24;35.23
47592;BME280;33317;33.356;-117.184;2024-02-23T07:11:08;99780.18;;;22.95;35.29
47592;BME280;33317;33.356;-117.184;2024-02-23T07:13:37;99782.80;;;22.82;35.41
47592;BME280;33317;33.356;-117.184;2024-02-23T07:16:07;99781.08;;;22.72;35.61
47592;BME280;33317;33.356;-117.184;2024-02-23T07:18:35;99779.87;;;22.66;35.48
47592;BME280;33317;33.356;-117.184;2024-02-23T07:21:03;99775.71;;;22.50;35.96
47592;BME280;33317;33.356;-117.184;2024-02-23T07:23:32;99776.28;;;22.51;35.84
47592;BME280;33317;33.356;-117.184;2024-02-23T07:26:00;99770.69;;;22.90;35.67
47592;BME280;33317;33.356;-117.184;2024-02-23T07:28:28;99767.08;;;22.66;35.65
47592;BME280;33317;33.356;-117.184;2024-02-23T07:30:57;99757.13;;;23.48;34.54
47592;BME280;33317;33.356;-117.184;2024-02-23T07:33:25;99754.08;;;23.25;34.64
47592;BME280;33317;33.356;-117.184;2024-02-23T07:35:54;99752.81;;;23.28;34.61
47592;BME280;33317;33.356;-117.184;2024-02-23T07:38:22;99753.54;;;22.22;36.25
47592;BME280;33317;33.356;-117.184;2024-02-23T07:40:50;99754.93;;;22.62;36.00
47592;BME280;33317;33.356;-117.184;2024-02-23T07:43:18;99748.34;;;22.27;36.18
47592;BME280;33317;33.356;-117.184;2024-02-23T07:45:47;99745.38;;;22.81;35.51
47592;BME280;33317;33.356;-117.184;2024-02-23T07:48:15;99746.28;;;22.50;35.62
47592;BME280;33317;33.356;-117.184;2024-02-23T07:50:43;99734.75;;;22.18;36.30
47592;BME280;33317;33.356;-117.184;2024-02-23T07:53:12;99730.67;;;22.67;35.55
47592;BME280;33317;33.356;-117.184;2024-02-23T07:55:40;99720.08;;;22.33;36.32
47592;BME280;33317;33.356;-117.184;2024-02-23T07:58:09;99714.13;;;22.36;35.90
47592;BME280;33317;33.356;-117.184;2024-02-23T08:00:37;99706.05;;;21.97;36.46
47592;BME280;33317;33.356;-117.184;2024-02-23T08:03:06;99703.74;;;22.43;36.17
47592;BME280;33317;33.356;-117.184;2024-02-23T08:05:34;99698.34;;;22.24;36.11
47592;BME280;33317;33.356;-117.184;2024-02-23T08:08:03;99687.21;;;21.82;36.66
47592;BME280;33317;33.356;-117.184;2024-02-23T08:10:31;99683.51;;;22.44;35.53
47592;BME280;33317;33.356;-117.184;2024-02-23T08:13:00;99681.41;;;22.68;35.36
47592;BME280;33317;33.356;-117.184;2024-02-23T08:15:28;99679.47;;;22.41;35.95
47592;BME280;33317;33.356;-117.184;2024-02-23T08:17:57;99675.89;;;22.05;36.29
47592;BME280;33317;33.356;-117.184;2024-02-23T08:20:25;99671.29;;;22.21;36.43
47592;BME280;33317;33.356;-117.184;2024-02-23T08:22:53;99671.69;;;22.14;36.18
47592;BME280;33317;33.356;-117.184;2024-02-23T08:25:22;99663.77;;;21.99;36.50
47592;BME280;33317;33.356;-117.184;2024-02-23T08:27:50;99661.72;;;22.74;35.73
47592;BME280;33317;33.356;-117.184;2024-02-23T08:30:19;99652.00;;;22.46;35.83
47592;BME280;33317;33.356;-117.184;2024-02-23T08:32:47;99651.94;;;22.28;36.15
47592;BME280;33317;33.356;-117.184;2024-02-23T08:35:15;99647.42;;;22.64;36.01
47592;BME280;33317;33.356;-117.184;2024-02-23T08:37:44;99645.79;;;21.90;36.32
47592;BME280;33317;33.356;-117.184;2024-02-23T08:40:12;99643.42;;;22.38;35.84
47592;BME280;33317;33.356;-117.184;2024-02-23T08:42:41;99642.78;;;22.42;36.33
47592;BME280;33317;33.356;-117.184;2024-02-23T08:45:10;99642.85;;;22.08;36.01
47592;BME280;33317;33.356;-117.184;2024-02-23T08:47:38;99640.86;;;22.49;35.65
47592;BME280;33317;33.356;-117.184;2024-02-23T08:50:07;99637.66;;;21.98;36.40
47592;BME280;33317;33.356;-117.184;2024-02-23T08:52:35;99635.00;;;22.48;36.09
47592;BME280;33317;33.356;-117.184;2024-02-23T08:55:04;99621.70;;;22.21;35.78
47592;BME280;33317;33.356;-117.184;2024-02-23T08:57:32;99621.48;;;22.15;36.13
47592;BME280;33317;33.356;-117.184;2024-02-23T09:00:01;99622.72;;;22.11;36.26
47592;BME280;33317;33.356;-117.184;2024-02-23T09:02:29;99618.51;;;21.91;36.46
47592;BME280;33317;33.356;-117.184;2024-02-23T09:04:57;99613.98;;;21.94;36.48
47592;BME280;33317;33.356;-117.184;2024-02-23T09:07:26;99609.39;;;22.22;36.36
47592;BME280;33317;33.356;-117.184;2024-02-23T09:09:54;99610.79;;;22.12;36.09
47592;BME280;33317;33.356;-117.184;2024-02-23T09:12:23;99607.06;;;22.49;35.54
47592;BME280;33317;33.356;-117.184;2024-02-23T09:14:51;99606.22;;;22.75;34.97
47592;BME280;33317;33.356;-117.184;2024-02-23T09:17:19;99604.37;;;22.80;35.23
47592;BME280;33317;33.356;-117.184;2024-02-23T09:19:48;99600.20;;;22.02;35.75
47592;BME280;33317;33.356;-117.184;2024-02-23T09:22:16;99598.14;;;22.37;35.94
47592;BME280;33317;33.356;-117.184;2024-02-23T09:24:44;99599.90;;;22.48;35.76
47592;BME280;33317;33.356;-117.184;2024-02-23T09:27:13;99599.91;;;22.39;35.34
47592;BME280;33317;33.356;-117.184;2024-02-23T09:29:42;99598.72;;;22.57;35.05
47592;BME280;33317;33.356;-117.184;2024-02-23T09:32:10;99599.14;;;22.27;35.43
47592;BME280;33317;33.356;-117.184;2024-02-23T09:34:38;99597.92;;;22.17;36.10
47592;BME280;33317;33.356;-117.184;2024-02-23T09:37:06;99594.52;;;21.91;35.95
47592;BME280;33317;33.356;-117.184;2024-02-23T09:39:35;99593.86;;;21.93;36.01
47592;BME280;33317;33.356;-117.184;2024-02-23T09:42:05;99588.48;;;22.02;36.19
47592;BME280;33317;33.356;-117.184;2024-02-23T09:44:37;99587.58;;;22.00;36.28
47592;BME280;33317;33.356;-117.184;2024-02-23T09:47:06;99583.76;;;21.76;36.62
47592;BME280;33317;33.356;-117.184;2024-02-23T09:49:37;99584.15;;;21.55;36.89
47592;BME280;33317;33.356;-117.184;2024-02-23T09:52:08;99579.69;;;21.27;36.90
47592;BME280;33317;33.356;-117.184;2024-02-23T09:54:37;99577.42;;;21.63;36.72
47592;BME280;33317;33.356;-117.184;2024-02-23T09:57:08;99581.41;;;21.64;36.68
47592;BME280;33317;33.356;-117.184;2024-02-23T09:59:37;99578.34;;;21.32;36.66
47592;BME280;33317;33.356;-117.184;2024-02-23T10:02:08;99571.61;;;21.47;36.87
47592;BME280;33317;33.356;-117.184;2024-02-23T10:04:37;99566.87;;;21.38;36.95
47592;BME280;33317;33.356;-117.184;2024-02-23T10:07:06;99561.08;;;21.79;36.42
47592;BME280;33317;33.356;-117.184;2024-02-23T10:09:35;99563.83;;;21.81;36.36
47592;BME280;33317;33.356;-117.184;2024-02-23T10:12:03;99559.08;;;21.72;36.47
47592;BME280;33317;33.356;-117.184;2024-02-23T10:14:31;99561.96;;;21.59;36.71
47592;BME280;33317;33.356;-117.184;2024-02-23T10:17:00;99557.53;;;21.63;36.64
47592;BME280;33317;33.356;-117.184;2024-02-23T10:19:28;99551.39;;;21.78;36.38
47592;BME280;33317;33.356;-117.184;2024-02-23T10:21:57;99548.63;;;21.86;36.27
47592;BME280;33317;33.356;-117.184;2024-02-23T10:24:25;99547.92;;;21.98;36.07
47592;BME280;33317;33.356;-117.184;2024-02-23T10:26:53;99542.72;;;21.85;36.19
47592;BME280;33317;33.356;-117.184;2024-02-23T10:29:22;99539.68;;;21.97;35.65
47592;BME280;33317;33.356;-117.184;2024-02-23T10:31:52;99535.24;;;21.92;35.76
47592;BME280;33317;33.356;-117.184;2024-02-23T10:34:20;99533.80;;;22.13;35.77
47592;BME280;33317;33.356;-117.184;2024-02-23T10:36:49;99530.30;;;22.05;35.54
47592;BME280;33317;33.356;-117.184;2024-02-23T10:39:19;99533.82;;;22.58;35.11
47592;BME280;33317;33.356;-117.184;2024-02-23T10:41:56;99533.85;;;22.19;35.55
47592;BME280;33317;33.356;-117.184;2024-02-23T10:44:26;99534.32;;;22.19;35.65
47592;BME280;33317;33.356;-117.184;2024-02-23T10:46:55;99530.25;;;21.93;35.98
47592;BME280;33317;33.356;-117.184;2024-02-23T10:49:24;99526.81;;;22.08;35.79
47592;BME280;33317;33.356;-117.184;2024-02-23T10:51:54;99526.16;;;21.72;35.87
47592;BME280;33317;33.356;-117.184;2024-02-23T10:54:23;99523.91;;;21.54;36.15
47592;BME280;33317;33.356;-117.184;2024-02-23T10:56:52;99525.45;;;22.15;35.57
47592;BME280;33317;33.356;-117.184;2024-02-23T10:59:20;99527.44;;;22.07;35.69
47592;BME280;33317;33.356;-117.184;2024-02-23T11:01:51;99527.30;;;21.91;35.40
47592;BME280;33317;33.356;-117.184;2024-02-23T11:04:21;99531.75;;;21.86;35.95
47592;BME280;33317;33.356;-117.184;2024-02-23T11:06:50;99529.86;;;22.07;35.74
47592;BME280;33317;33.356;-117.184;2024-02-23T11:09:22;99527.51;;;22.13;35.59
47592;BME280;33317;33.356;-117.184;2024-02-23T11:11:53;99522.77;;;22.11;35.60
47592;BME280;33317;33.356;-117.184;2024-02-23T11:14:30;99518.78;;;21.94;35.41
47592;BME280;33317;33.356;-117.184;2024-02-23T11:16:59;99512.62;;;21.87;35.50
47592;BME280;33317;33.356;-117.184;2024-02-23T11:19:35;99515.57;;;22.37;35.25
47592;BME280;33317;33.356;-117.184;2024-02-23T11:22:04;99511.71;;;22.19;35.37
47592;BME280;33317;33.356;-117.184;2024-02-23T11:24:33;99510.46;;;22.39;35.02
47592;BME280;33317;33.356;-117.184;2024-02-23T11:27:02;99502.97;;;22.63;34.69
47592;BME280;33317;33.356;-117.184;2024-02-23T11:29:30;99500.36;;;22.13;35.13
47592;BME280;33317;33.356;-117.184;2024-02-23T11:31:59;99496.01;;;22.02;35.56
47592;BME280;33317;33.356;-117.184;2024-02-23T11:34:28;99491.00;;;22.44;35.00
47592;BME280;33317;33.356;-117.184;2024-02-23T11:36:57;99492.85;;;21.97;35.31
47592;BME280;33317;33.356;-117.184;2024-02-23T11:39:26;99493.40;;;22.08;35.14
47592;BME280;33317;33.356;-117.184;2024-02-23T11:41:55;99494.94;;;22.04;35.62
47592;BME280;33317;33.356;-117.184;2024-02-23T11:44:25;99496.36;;;21.82;35.46
47592;BME280;33317;33.356;-117.184;2024-02-23T11:46:53;99493.83;;;22.26;35.21
47592;BME280;33317;33.356;-117.184;2024-02-23T11:49:27;99489.76;;;21.80;35.81
47592;BME280;33317;33.356;-117.184;2024-02-23T11:51:57;99491.14;;;21.83;35.78
47592;BME280;33317;33.356;-117.184;2024-02-23T11:54:25;99494.83;;;21.91;35.64
47592;BME280;33317;33.356;-117.184;2024-02-23T11:56:53;99494.45;;;21.77;35.83
47592;BME280;33317;33.356;-117.184;2024-02-23T11:59:21;99489.40;;;21.84;35.74
47592;BME280;33317;33.356;-117.184;2024-02-23T12:01:50;99485.25;;;22.19;35.23
47592;BME280;33317;33.356;-117.184;2024-02-23T12:04:18;99485.67;;;21.96;35.51
47592;BME280;33317;33.356;-117.184;2024-02-23T12:06:46;99489.24;;;22.13;35.20
47592;BME280;33317;33.356;-117.184;2024-02-23T12:09:15;99490.73;;;21.95;35.47
47592;BME280;33317;33.356;-117.184;2024-02-23T12:11:43;99488.01;;;21.91;35.50
47592;BME280;33317;33.356;-117.184;2024-02-23T12:14:13;99490.33;;;22.17;35.09
47592;BME280;33317;33.356;-117.184;2024-02-23T12:16:41;99494.05;;;22.09;35.13
47592;BME280;33317;33.356;-117.184;2024-02-23T12:19:10;99493.19;;;21.72;35.25
47592;BME280;33317;33.356;-117.184;2024-02-23T12:21:38;99490.64;;;21.95;35.29
47592;BME280;33317;33.356;-117.184;2024-02-23T12:24:07;99490.14;;;21.96;35.27
47592;BME280;33317;33.356;-117.184;2024-02-23T12:26:35;99487.19;;;21.93;35.24
47592;BME280;33317;33.356;-117.184;2024-02-23T12:29:04;99487.46;;;22.14;34.87
47592;BME280;33317;33.356;-117.184;2024-02-23T12:31:32;99488.29;;;22.08;34.96
47592;BME280;33317;33.356;-117.184;2024-02-23T12:34:01;99488.29;;;22.33;34.93
47592;BME280;33317;33.356;-117.184;2024-02-23T12:36:29;99489.72;;;21.76;34.93
47592;BME280;33317;33.356;-117.184;2024-02-23T12:38:58;99488.38;;;21.97;35.34